Time;durP1;ratioP1;P1;durP2;ratioP2;P2;SDS_P1;SDS_P2;PMS_P1;PMS_P2;Temp;Humidity;BMP_temperature;BMP_pressure;BME280_temperature;BME280_humidity;BME280_pressure;Samples;Min_cycle;Max_cycle;Signal;HPM_P1;HPM_P2
2023/09/04 00:02:00;;;;;;;5.10;4.60;;;;;;;21.31;100.00;99926.90;104241;1254;59822;-59
2023/09/04 00:04:27;;;;;;;;;;;;;;;21.34;100.00;99929.65;104311;1257;73089;-60
2023/09/04 00:06:56;;;;;;;6.50;4.40;;;;;;;21.37;100.00;99927.63;104332;1259;69422;-57
2023/09/04 00:09:24;;;;;;;6.30;4.60;;;;;;;21.39;100.00;99928.73;104279;1254;72446;-59
2023/09/04 00:11:51;;;;;;;6.60;4.50;;;;;;;21.42;100.00;99930.84;104216;1273;61923;-59
2023/09/04 00:14:19;;;;;;;7.70;4.70;;;;;;;21.41;100.00;99936.92;104321;1255;59806;-58
2023/09/04 00:16:47;;;;;;;;;;;;;;;21.47;100.00;99940.21;104218;1276;73680;-59
2023/09/04 00:19:17;;;;;;;3.90;3.60;;;;;;;21.52;100.00;99940.35;104317;1276;69055;-58
2023/09/04 00:21:45;;;;;;;4.90;4.40;;;;;;;21.51;100.00;99943.60;104337;1274;72412;-60
2023/09/04 00:24:13;;;;;;;;;;;;;;;21.54;100.00;99942.30;104356;1257;61495;-59
2023/09/04 00:26:41;;;;;;;;;;;;;;;21.55;100.00;99944.51;104326;1258;59860;-59
2023/09/04 00:29:08;;;;;;;5.40;4.30;;;;;;;21.51;100.00;99943.42;104325;1275;72878;-59
2023/09/04 00:31:36;;;;;;;4.40;4.00;;;;;;;21.51;100.00;99942.75;104331;1274;69208;-59
2023/09/04 00:34:04;;;;;;;4.80;4.10;;;;;;;21.50;100.00;99941.61;104327;1257;73385;-58
2023/09/04 00:36:32;;;;;;;4.80;4.30;;;;;;;21.51;100.00;99942.95;104306;1257;60465;-59
2023/09/04 00:39:00;;;;;;;5.50;4.20;;;;;;;21.52;100.00;99945.71;104280;1253;59752;-59
2023/09/04 00:41:28;;;;;;;5.90;4.00;;;;;;;21.54;100.00;99944.08;104292;1259;73293;-59
2023/09/04 00:43:55;;;;;;;5.60;4.80;;;;;;;21.54;100.00;99947.98;104275;1259;69143;-58
2023/09/04 00:46:23;;;;;;;6.40;4.10;;;;;;;21.55;100.00;99947.59;104254;1275;72290;-58
2023/09/04 00:48:51;;;;;;;4.90;4.40;;;;;;;21.56;100.00;99946.54;104401;1254;61417;-59
2023/09/04 00:51:19;;;;;;;4.60;4.10;;;;;;;21.57;100.00;99945.64;104386;1254;60667;-59
2023/09/04 00:53:49;;;;;;;5.00;4.50;;;;;;;21.58;100.00;99942.69;104344;1273;73294;-60
2023/09/04 00:56:17;;;;;;;5.50;3.90;;;;;;;21.59;100.00;99945.13;108524;1252;69197;-60
2023/09/04 00:58:46;;;;;;;5.90;4.30;;;;;;;21.58;100.00;99948.52;106133;1256;72305;-58
2023/09/04 01:01:15;;;;;;;7.40;4.40;;;;;;;21.60;100.00;99948.08;104305;1253;61724;-58
2023/09/04 01:03:44;;;;;;;5.20;4.50;;;;;;;21.59;100.00;99949.58;104368;1256;60083;-57
2023/09/04 01:06:11;;;;;;;;;;;;;;;21.58;100.00;99949.41;104364;1251;72720;-58
2023/09/04 01:08:39;;;;;;;;;;;;;;;21.59;100.00;99950.77;104314;1257;69288;-58
2023/09/04 01:11:11;;;;;;;4.20;3.80;;;;;;;21.59;100.00;99952.96;104313;1271;73418;-57
2023/09/04 01:13:50;;;;;;;5.80;4.40;;;;;;;21.59;100.00;99951.73;104322;1253;62516;-57
2023/09/04 01:16:19;;;;;;;5.00;4.60;;;;;;;21.59;100.00;99953.80;104349;1254;59743;-57
2023/09/04 01:18:47;;;;;;;5.10;4.50;;;;;;;21.57;100.00;99952.80;104313;1257;72986;-58
2023/09/04 01:21:16;;;;;;;6.20;4.30;;;;;;;21.55;100.00;99953.45;104269;1254;69318;-57
2023/09/04 01:23:43;;;;;;;5.00;4.60;;;;;;;21.55;100.00;99949.69;104339;1256;72500;-58
2023/09/04 01:26:21;;;;;;;6.50;4.40;;;;;;;21.57;100.00;99950.20;108571;1252;60977;-58
2023/09/04 01:29:08;;;;;;;4.80;4.30;;;;;;;21.57;100.00;99948.45;106621;1253;59659;-57
2023/09/04 01:31:47;;;;;;;5.60;4.30;;;;;;;21.56;100.00;99950.73;104372;1266;73648;-57
2023/09/04 01:34:21;;;;;;;4.30;3.90;;;;;;;21.57;100.00;99952.35;108592;1251;68319;-58
2023/09/04 01:36:54;;;;;;;5.00;4.50;;;;;;;21.57;100.00;99948.97;107120;1253;72862;-59
2023/09/04 01:39:22;;;;;;;4.80;4.40;;;;;;;21.55;100.00;99951.29;104416;1251;61383;-60
2023/09/04 01:41:50;;;;;;;7.60;4.70;;;;;;;21.57;100.00;99952.56;104439;1260;60666;-59
2023/09/04 01:44:18;;;;;;;5.70;5.00;;;;;;;21.57;100.00;99950.23;104199;1254;73252;-59
2023/09/04 01:46:46;;;;;;;6.10;4.30;;;;;;;21.53;100.00;99951.10;104180;1272;69337;-58
2023/09/04 01:49:13;;;;;;;4.90;4.20;;;;;;;21.51;100.00;99949.55;104431;1251;72948;-58
2023/09/04 01:51:41;;;;;;;5.40;4.50;;;;;;;21.51;100.00;99952.55;104291;1256;61417;-58
2023/09/04 01:54:09;;;;;;;5.10;4.60;;;;;;;21.51;100.00;99956.30;104932;1251;60533;-58
2023/09/04 01:56:37;;;;;;;5.20;4.40;;;;;;;21.52;100.00;99956.86;108391;1253;73661;-59
2023/09/04 01:59:05;;;;;;;6.40;5.00;;;;;;;21.52;100.00;99962.11;104365;1259;69129;-58
2023/09/04 02:01:35;;;;;;;5.20;4.50;;;;;;;21.53;100.00;99967.56;108504;1251;72393;-59
2023/09/04 02:04:03;;;;;;;5.50;5.00;;;;;;;21.51;100.00;99966.65;104517;1253;60803;-58
2023/09/04 02:06:31;;;;;;;5.50;4.90;;;;;;;21.50;100.00;99965.27;104330;1268;60048;-59
2023/09/04 02:08:59;;;;;;;4.80;4.30;;;;;;;21.49;100.00;99966.64;104342;1256;74074;-59
2023/09/04 02:11:27;;;;;;;4.90;4.40;;;;;;;21.50;100.00;99966.20;104240;1274;69993;-59
2023/09/04 02:13:55;;;;;;;5.50;4.80;;;;;;;21.53;100.00;99965.08;104337;1254;72397;-59
2023/09/04 02:16:23;;;;;;;9.70;4.80;;;;;;;21.55;100.00;99963.07;104660;1254;61431;-58
2023/09/04 02:18:51;;;;;;;;;;;;;;;21.56;100.00;99958.17;104360;1251;60504;-58
2023/09/04 02:21:18;;;;;;;4.60;4.20;;;;;;;21.56;100.00;99957.46;104325;1274;73583;-58
2023/09/04 02:23:47;;;;;;;5.70;4.30;;;;;;;21.53;100.00;99953.07;104383;1261;69232;-58
2023/09/04 02:26:14;;;;;;;5.80;4.60;;;;;;;21.52;100.00;99949.93;104228;1270;72433;-58
2023/09/04 02:28:42;;;;;;;5.60;4.50;;;;;;;21.49;100.00;99947.36;104325;1253;61869;-58
2023/09/04 02:31:11;;;;;;;5.20;4.60;;;;;;;21.46;100.00;99951.02;104271;1254;60584;-58
2023/09/04 02:33:39;;;;;;;4.90;4.50;;;;;;;21.47;100.00;99951.30;104382;1251;74102;-60
2023/09/04 02:36:06;;;;;;;5.10;4.70;;;;;;;21.49;100.00;99952.38;104242;1274;69626;-59
2023/09/04 02:38:35;;;;;;;;;;;;;;;21.44;100.00;99953.99;104290;1257;72885;-58
2023/09/04 02:41:02;;;;;;;6.10;4.90;;;;;;;21.33;100.00;99954.52;104293;1262;61451;-58
2023/09/04 02:43:30;;;;;;;6.80;5.10;;;;;;;21.31;100.00;99955.08;104394;1251;59719;-58
2023/09/04 02:45:58;;;;;;;5.30;4.80;;;;;;;21.29;100.00;99954.86;104301;1257;73561;-61
2023/09/04 02:48:25;;;;;;;6.80;4.80;;;;;;;21.26;100.00;99956.04;104336;1258;69847;-58
2023/09/04 02:51:00;;;;;;;7.00;4.70;;;;;;;21.23;100.00;99958.94;104291;1274;72174;-58
2023/09/04 02:53:28;;;;;;;5.50;4.60;;;;;;;21.27;100.00;99961.68;104273;1252;61465;-58
2023/09/04 02:55:56;;;;;;;5.20;4.70;;;;;;;21.25;100.00;99961.59;105259;1251;60543;-58
2023/09/04 02:58:24;;;;;;;;;;;;;;;21.24;100.00;99960.64;107977;1253;73546;-58
2023/09/04 03:00:52;;;;;;;6.90;4.90;;;;;;;21.21;100.00;99964.08;104413;1260;69005;-58
2023/09/04 03:03:20;;;;;;;;;;;;;;;21.20;100.00;99965.36;104692;1259;72431;-58
2023/09/04 03:05:48;;;;;;;7.10;4.40;;;;;;;21.23;100.00;99965.19;104293;1269;62322;-58
2023/09/04 03:08:16;;;;;;;5.60;4.40;;;;;;;21.21;100.00;99963.05;104285;1258;60738;-58
2023/09/04 03:10:44;;;;;;;7.80;5.10;;;;;;;21.22;100.00;99964.55;104281;1259;74460;-58
2023/09/04 03:13:12;;;;;;;5.00;4.60;;;;;;;21.21;100.00;99966.08;104334;1274;69354;-58
2023/09/04 03:15:39;;;;;;;;;;;;;;;21.20;100.00;99965.95;104691;1254;71423;-59
2023/09/04 03:18:09;;;;;;;4.90;4.40;;;;;;;21.20;100.00;99964.34;104294;1256;61418;-58
2023/09/04 03:20:37;;;;;;;5.80;4.70;;;;;;;21.19;100.00;99964.11;104294;1257;60571;-58
2023/09/04 03:23:05;;;;;;;;;;;;;;;21.16;100.00;99968.73;104327;1255;73587;-58
2023/09/04 03:25:33;;;;;;;;;;;;;;;21.15;100.00;99965.63;104265;1275;69215;-59
2023/09/04 03:28:01;;;;;;;4.70;4.20;;;;;;;21.15;100.00;99967.27;104409;1267;72312;-59
2023/09/04 03:30:29;;;;;;;6.50;4.80;;;;;;;21.09;100.00;99971.13;104437;1257;61372;-58
2023/09/04 03:32:58;;;;;;;5.80;4.60;;;;;;;21.08;100.00;99975.14;108201;1253;61280;-59
2023/09/04 03:35:26;;;;;;;7.50;4.70;;;;;;;21.09;100.00;99978.61;104951;1256;73558;-58
2023/09/04 03:37:54;;;;;;;7.30;4.60;;;;;;;21.08;100.00;99975.34;104303;1257;69208;-59
2023/09/04 03:40:23;;;;;;;5.80;4.90;;;;;;;21.02;100.00;99977.25;108491;1253;72970;-59
2023/09/04 03:42:51;;;;;;;5.00;4.50;;;;;;;21.04;100.00;99974.38;108558;1252;61552;-59
2023/09/04 03:45:19;;;;;;;4.60;4.20;;;;;;;21.07;100.00;99972.92;108601;1252;59724;-59
2023/09/04 03:47:47;;;;;;;4.50;4.10;;;;;;;21.10;100.00;99970.67;108652;1251;74370;-59
2023/09/04 03:50:15;;;;;;;5.60;4.90;;;;;;;21.13;100.00;99972.42;108557;1252;69405;-59
2023/09/04 03:52:43;;;;;;;;;;;;;;;21.18;100.00;99970.77;108638;1252;72616;-59
2023/09/04 03:55:10;;;;;;;;;;;;;;;21.21;100.00;99973.88;108505;1253;60401;-59
2023/09/04 03:57:40;;;;;;;;;;;;;;;21.23;100.00;99973.94;108459;1253;59514;-60
2023/09/04 04:00:14;;;;;;;4.60;4.00;;;;;;;21.19;100.00;99975.82;108313;1253;73692;-59
2023/09/04 04:02:44;;;;;;;4.70;4.20;;;;;;;21.23;100.00;99973.89;108300;1251;69273;-59
2023/09/04 04:05:13;;;;;;;5.90;4.50;;;;;;;21.24;100.00;99973.33;108266;1251;73439;-59
2023/09/04 04:07:42;;;;;;;10.90;4.70;;;;;;;21.24;100.00;99973.14;108518;1252;60496;-59
2023/09/04 04:10:11;;;;;;;10.10;4.60;;;;;;;21.23;100.00;99979.94;108406;1252;60659;-59
2023/09/04 04:12:39;;;;;;;8.10;4.50;;;;;;;21.26;100.00;99984.05;108568;1252;73751;-59
2023/09/04 04:15:11;;;;;;;10.80;4.40;;;;;;;21.27;100.00;99983.73;108562;1251;68112;-59
2023/09/04 04:17:39;;;;;;;10.50;4.10;;;;;;;21.30;100.00;99986.55;108617;1251;72467;-59
2023/09/04 04:20:11;;;;;;;4.60;4.20;;;;;;;21.34;100.00;99983.55;108431;1252;61379;-59
2023/09/04 04:22:40;;;;;;;4.30;3.90;;;;;;;21.41;100.00;99984.34;108616;1252;59781;-59
2023/09/04 04:25:09;;;;;;;5.10;4.50;;;;;;;21.49;100.00;99990.48;108650;1252;74528;-59
2023/09/04 04:27:38;;;;;;;5.60;4.30;;;;;;;21.57;100.00;99988.93;108625;1253;69090;-59
2023/09/04 04:30:08;;;;;;;6.60;4.60;;;;;;;21.63;100.00;99988.49;108567;1252;72305;-59
2023/09/04 04:32:37;;;;;;;4.90;4.20;;;;;;;21.67;100.00;99991.37;108411;1253;60829;-59
2023/09/04 04:35:07;;;;;;;4.30;3.90;;;;;;;21.71;100.00;99988.89;108502;1251;59792;-60
2023/09/04 04:37:38;;;;;;;5.10;4.30;;;;;;;21.72;100.00;99988.96;108497;1252;73729;-59
2023/09/04 04:40:07;;;;;;;5.00;3.60;;;;;;;21.79;100.00;99986.25;108603;1252;68393;-60
2023/09/04 04:42:36;;;;;;;4.90;3.80;;;;;;;21.84;100.00;99980.52;108388;1253;72921;-60
2023/09/04 04:45:05;;;;;;;6.40;3.80;;;;;;;21.88;100.00;99982.63;108469;1251;62362;-59
2023/09/04 04:47:33;;;;;;;4.20;3.80;;;;;;;21.94;100.00;99984.58;108590;1251;59893;-59
2023/09/04 04:50:02;;;;;;;6.80;4.20;;;;;;;21.98;100.00;99985.89;108444;1251;74556;-59
2023/09/04 04:52:29;;;;;;;4.50;4.10;;;;;;;22.00;100.00;99991.79;108622;1253;69063;-59
2023/09/04 04:54:57;;;;;;;4.10;3.70;;;;;;;22.05;100.00;99992.10;108549;1251;73331;-59
2023/09/04 04:57:24;;;;;;;4.30;3.90;;;;;;;22.11;100.00;99995.08;108606;1253;61416;-59
2023/09/04 04:59:52;;;;;;;4.00;3.70;;;;;;;22.12;100.00;100000.06;108297;1253;60744;-59
2023/09/04 05:02:21;;;;;;;5.10;4.10;;;;;;;22.15;100.00;100005.84;108392;1253;73774;-59
2023/09/04 05:04:49;;;;;;;4.90;4.30;;;;;;;22.18;100.00;100002.81;108532;1251;69049;-59
2023/09/04 05:07:21;;;;;;;5.20;4.00;;;;;;;22.22;100.00;100007.09;108338;1253;72314;-59
2023/09/04 05:09:53;;;;;;;4.70;4.10;;;;;;;22.22;100.00;100004.72;108451;1251;61382;-59
2023/09/04 05:12:22;;;;;;;4.80;3.90;;;;;;;22.23;100.00;100004.62;108283;1251;59703;-58
2023/09/04 05:14:50;;;;;;;8.20;4.70;;;;;;;22.26;100.00;100006.88;108468;1251;72567;-58
2023/09/04 05:17:21;;;;;;;6.90;4.40;;;;;;;22.30;100.00;100009.40;108463;1251;68136;-58
2023/09/04 05:19:48;;;;;;;3.80;3.50;;;;;;;22.33;100.00;100016.64;108511;1251;72295;-58
2023/09/04 05:22:16;;;;;;;5.50;4.00;;;;;;;22.36;100.00;100016.95;108590;1252;62361;-59
2023/09/04 05:24:44;;;;;;;5.20;4.30;;;;;;;22.41;100.00;100016.90;108491;1251;59931;-59
2023/09/04 05:27:12;;;;;;;4.00;3.50;;;;;;;22.44;100.00;100018.21;108491;1252;73659;-59
2023/09/04 05:29:41;;;;;;;5.30;4.20;;;;;;;22.46;100.00;100024.63;108497;1251;69849;-60
2023/09/04 05:32:08;;;;;;;7.90;3.70;;;;;;;22.48;100.00;100020.16;108418;1252;72464;-59
2023/09/04 05:34:39;;;;;;;5.70;3.70;;;;;;;22.54;100.00;100019.83;108363;1252;61911;-59
2023/09/04 05:40:13;;;;;;;6.60;4.40;;;;;;;22.66;98.81;100017.52;101448;1290;613286;-59
2023/09/04 05:42:40;;;;;;;5.30;4.50;;;;;;;22.68;97.03;100020.23;103831;1265;60643;-59
2023/09/04 05:45:09;;;;;;;6.30;4.10;;;;;;;22.71;96.26;100023.00;103781;1284;59783;-58
2023/09/04 05:47:36;;;;;;;7.40;4.10;;;;;;;22.74;95.13;100024.92;103662;1272;71219;-59
2023/09/04 05:50:05;;;;;;;6.60;4.20;;;;;;;22.77;95.40;100026.41;103721;1277;70020;-60
2023/09/04 05:52:33;;;;;;;6.80;4.20;;;;;;;22.80;94.45;100032.09;103675;1278;279049;-59
2023/09/04 05:55:00;;;;;;;9.70;4.20;;;;;;;22.79;93.83;100033.80;103906;1264;61865;-59
2023/09/04 05:57:29;;;;;;;10.40;3.90;;;;;;;22.84;93.26;100036.92;103887;1264;59728;-59
2023/09/04 05:59:56;;;;;;;8.50;4.10;;;;;;;22.91;92.78;100040.76;106385;1264;72144;-60
2023/09/04 06:02:22;;;;;;;9.90;3.90;;;;;;;22.97;91.07;100044.11;106708;1263;69766;-59
2023/09/04 06:04:49;;;;;;;8.70;3.90;;;;;;;23.01;90.10;100042.91;104012;1267;71330;-60
2023/09/04 06:07:16;;;;;;;9.50;3.80;;;;;;;23.05;88.56;100047.61;106592;1263;61755;-59
2023/09/04 06:09:44;;;;;;;4.70;3.90;;;;;;;23.12;88.08;100050.38;107254;1263;60051;-59
2023/09/04 06:12:12;;;;;;;9.30;4.30;;;;;;;23.18;87.93;100050.02;107245;1264;71504;-59
2023/09/04 06:14:40;;;;;;;;;;;;;;;23.26;88.60;100053.74;104995;1268;69215;-60
2023/09/04 06:17:07;;;;;;;11.60;3.80;;;;;;;23.31;85.38;100055.06;103877;1285;72626;-58
2023/09/04 06:19:34;;;;;;;7.30;3.90;;;;;;;23.36;85.50;100051.12;103925;1282;61531;-59
2023/09/04 06:22:01;;;;;;;8.40;4.20;;;;;;;23.44;85.05;100052.52;103844;1267;59995;-59
2023/09/04 06:24:28;;;;;;;7.20;3.90;;;;;;;23.51;82.63;100054.56;103879;1267;73456;-58
2023/09/04 06:26:55;;;;;;;8.40;4.00;;;;;;;23.59;83.40;100052.25;103875;1267;68893;-58
2023/09/04 06:29:22;;;;;;;8.60;3.60;;;;;;;23.62;80.46;100056.61;103865;1286;72909;-59
2023/09/04 06:31:49;;;;;;;7.30;4.20;;;;;;;23.65;81.00;100057.04;104195;1261;61359;-58
2023/09/04 06:34:16;;;;;;;4.60;3.50;;;;;;;23.67;79.64;100060.23;104284;1277;59349;-58
2023/09/04 06:36:43;;;;;;;5.30;4.20;;;;;;;23.71;78.64;100060.80;104265;1260;72527;-58
2023/09/04 06:39:12;;;;;;;6.40;3.70;;;;;;;23.75;80.78;100065.07;104204;1279;70452;-58
2023/09/04 06:41:40;;;;;;;7.00;4.20;;;;;;;23.77;80.64;100070.16;104227;1279;73047;-58
2023/09/04 06:44:07;;;;;;;4.60;3.70;;;;;;;23.78;80.32;100071.30;104272;1261;61430;-58
2023/09/04 06:46:34;;;;;;;6.30;3.50;;;;;;;23.73;82.93;100072.24;104253;1256;59801;-58
2023/09/04 06:49:01;;;;;;;4.30;3.90;;;;;;;23.71;83.16;100071.88;104248;1264;72639;-58
2023/09/04 06:51:29;;;;;;;8.40;4.00;;;;;;;23.69;82.94;100072.10;104272;1260;69803;-58
2023/09/04 06:53:55;;;;;;;5.10;3.20;;;;;;;23.70;82.40;100074.25;104271;1260;71452;-58
2023/09/04 06:56:22;;;;;;;5.10;3.70;;;;;;;23.71;82.04;100080.10;104256;1276;61596;-58
2023/09/04 06:58:49;;;;;;;11.50;4.00;;;;;;;23.73;79.49;100077.66;104292;1261;59780;-57
2023/09/04 07:01:16;;;;;;;6.90;3.80;;;;;;;23.73;78.85;100085.64;104334;1257;73253;-57
2023/09/04 07:03:43;;;;;;;6.60;4.00;;;;;;;23.77;79.56;100086.77;106723;1257;69049;-58
2023/09/04 07:06:10;;;;;;;6.80;4.20;;;;;;;23.78;79.41;100094.52;104303;1260;73062;-57
2023/09/04 07:08:36;;;;;;;4.70;3.30;;;;;;;23.80;80.32;100094.22;107414;1255;63138;-58
2023/09/04 07:11:03;;;;;;;7.80;3.90;;;;;;;23.82;79.91;100095.08;104290;1278;59986;-58
2023/09/04 07:13:30;;;;;;;6.10;3.40;;;;;;;23.87;81.29;100097.30;104458;1260;72794;-58
2023/09/04 07:15:57;;;;;;;5.30;3.90;;;;;;;23.91;78.26;100095.14;104272;1278;70195;-58
2023/09/04 07:18:27;;;;;;;8.80;4.60;;;;;;;23.92;79.58;100095.09;104232;1279;73114;-57
2023/09/04 07:20:54;;;;;;;8.50;4.50;;;;;;;23.94;79.06;100095.06;104239;1279;61724;-57
2023/09/04 07:23:20;;;;;;;7.00;3.70;;;;;;;24.01;77.34;100098.24;104239;1260;59892;-58
2023/09/04 07:25:52;;;;;;;5.30;3.90;;;;;;;24.08;78.32;100099.48;104275;1255;73146;-57
2023/09/04 07:28:19;;;;;;;8.50;3.80;;;;;;;24.17;78.30;100099.41;104198;1274;70102;-57
2023/09/04 07:30:46;;;;;;;10.10;4.00;;;;;;;24.23;79.45;100098.67;104251;1270;71321;-57
2023/09/04 07:33:13;;;;;;;10.10;4.10;;;;;;;24.29;77.71;100099.69;104279;1273;61458;-57
2023/09/04 07:35:40;;;;;;;6.40;3.50;;;;;;;24.36;77.11;100103.05;104312;1264;60809;-58
2023/09/04 07:38:07;;;;;;;7.60;3.80;;;;;;;24.46;77.03;100105.49;104313;1261;73707;-58
2023/09/04 07:40:34;;;;;;;8.80;3.80;;;;;;;24.52;75.64;100100.47;105157;1260;69400;-57
2023/09/04 07:43:01;;;;;;;7.70;4.30;;;;;;;24.60;75.39;100098.14;104377;1259;73095;-58
2023/09/04 07:45:28;;;;;;;;;;;;;;;24.65;75.08;100099.09;104290;1261;60580;-58
2023/09/04 07:47:55;;;;;;;4.60;3.60;;;;;;;24.70;74.91;100099.73;104270;1257;59670;-57
2023/09/04 07:50:22;;;;;;;6.10;3.70;;;;;;;24.73;72.47;100097.25;104400;1261;72582;-57
2023/09/04 07:52:49;;;;;;;4.90;3.50;;;;;;;24.78;71.82;100096.59;104266;1263;70018;-59
2023/09/04 07:55:16;;;;;;;4.30;3.80;;;;;;;24.81;70.30;100099.30;104251;1259;72190;-58
2023/09/04 07:57:45;;;;;;;8.60;3.60;;;;;;;24.86;70.87;100100.07;104337;1260;60548;-58
2023/09/04 08:00:16;;;;;;;7.90;3.90;;;;;;;24.93;70.63;100100.93;104317;1255;60768;-58
2023/09/04 08:02:50;;;;;;;8.70;3.80;;;;;;;25.01;70.51;100104.73;108243;1255;72787;-59
2023/09/04 08:05:16;;;;;;;11.30;3.80;;;;;;;25.12;71.08;100105.33;107855;1257;69582;-60
2023/09/04 08:07:43;;;;;;;4.60;3.80;;;;;;;25.25;71.45;100109.27;108031;1256;73127;-58
2023/09/04 08:10:10;;;;;;;5.80;3.60;;;;;;;25.40;69.72;100108.23;108104;1256;60212;-59
2023/09/04 08:12:37;;;;;;;9.20;3.60;;;;;;;25.53;69.84;100109.63;104773;1257;59997;-58
2023/09/04 08:15:07;;;;;;;11.40;3.80;;;;;;;25.65;68.84;100107.77;104292;1266;73041;-59
2023/09/04 08:17:35;;;;;;;8.60;3.50;;;;;;;25.76;68.14;100108.31;104240;1267;69961;-58
2023/09/04 08:20:01;;;;;;;;;;;;;;;25.87;65.23;100106.65;104346;1260;73133;-58
2023/09/04 08:22:29;;;;;;;5.50;3.40;;;;;;;25.96;65.40;100107.86;104280;1260;59725;-58
2023/09/04 08:24:56;;;;;;;5.70;3.70;;;;;;;26.02;64.96;100100.69;104261;1268;59974;-58
2023/09/04 08:27:23;;;;;;;4.00;3.20;;;;;;;26.12;61.96;100102.42;104291;1261;73284;-58
2023/09/04 08:29:51;;;;;;;5.70;3.80;;;;;;;26.19;62.49;100097.73;104435;1267;70176;-58
2023/09/04 08:32:18;;;;;;;6.30;4.70;;;;;;;26.27;63.00;100101.97;104570;1264;72629;-59
2023/09/04 08:34:48;;;;;;;4.00;3.40;;;;;;;26.36;63.61;100095.73;104466;1259;60334;-59
2023/09/04 08:37:15;;;;;;;6.50;3.30;;;;;;;26.51;63.38;100098.48;104296;1276;60951;-59
2023/09/04 08:39:42;;;;;;;11.40;3.60;;;;;;;26.56;60.77;100094.10;104368;1267;73723;-59
2023/09/04 08:42:09;;;;;;;10.70;3.90;;;;;;;26.64;61.10;100096.57;104226;1259;69520;-59
2023/09/04 08:44:38;;;;;;;4.50;3.60;;;;;;;26.76;60.53;100093.55;104029;1264;73573;-60
2023/09/04 08:47:06;;;;;;;7.90;3.90;;;;;;;26.82;59.38;100096.48;104398;1270;59945;-59
2023/09/04 08:49:33;;;;;;;3.70;3.10;;;;;;;26.84;59.60;100091.87;104316;1276;59878;-59
2023/09/04 08:52:00;;;;;;;5.50;3.60;;;;;;;26.84;59.61;100091.80;104259;1278;73267;-59
2023/09/04 08:54:28;;;;;;;3.70;3.20;;;;;;;26.84;58.21;100090.05;104402;1260;70094;-59
2023/09/04 08:56:56;;;;;;;7.80;3.30;;;;;;;26.85;56.37;100089.55;104245;1260;71447;-58
2023/09/04 08:59:22;;;;;;;;;;;;;;;26.85;56.98;100093.15;104581;1256;61409;-58
2023/09/04 09:01:52;;;;;;;5.90;2.80;;;;;;;26.89;57.83;100093.45;104564;1260;59755;-57
2023/09/04 09:04:21;;;;;;;5.50;2.60;;;;;;;26.96;56.68;100095.08;108180;1256;72881;-59
2023/09/04 09:06:50;;;;;;;9.50;3.40;;;;;;;27.06;55.78;100095.11;107360;1251;69202;-59
2023/09/04 09:09:20;;;;;;;3.20;2.90;;;;;;;27.09;55.99;100088.80;104703;1257;72770;-58
2023/09/04 09:11:53;;;;;;;8.60;3.00;;;;;;;27.15;56.30;100090.17;104285;1270;59952;-58
2023/09/04 09:14:21;;;;;;;3.70;2.70;;;;;;;27.23;56.68;100091.89;104778;1251;59837;-58
2023/09/04 09:17:01;;;;;;;4.70;2.70;;;;;;;27.30;57.11;100095.86;104655;1250;72796;-59
2023/09/04 09:19:31;;;;;;;;;;;;;;;27.35;56.76;100094.70;104436;1267;70160;-58
2023/09/04 09:22:20;;;;;;;3.50;2.80;;;;;;;27.39;55.50;100098.80;104267;1256;73070;-59
2023/09/04 09:24:54;;;;;;;4.20;3.20;;;;;;;27.48;54.94;100098.92;104471;1251;60133;-58
2023/09/04 09:27:26;;;;;;;3.40;2.90;;;;;;;27.55;55.57;100105.55;104294;1253;59667;-58
2023/09/04 09:29:57;;;;;;;7.20;3.10;;;;;;;27.56;55.53;100101.56;104359;1267;74101;-58
2023/09/04 09:32:27;;;;;;;3.40;3.10;;;;;;;27.57;54.25;100102.83;104485;1257;70196;-58
2023/09/04 09:34:55;;;;;;;3.30;2.90;;;;;;;27.61;53.73;100102.77;104300;1274;72647;-58
2023/09/04 09:37:23;;;;;;;3.40;2.90;;;;;;;27.66;53.36;100096.84;104740;1254;61002;-58
2023/09/04 09:39:52;;;;;;;5.50;2.70;;;;;;;27.70;52.52;100094.39;105375;1251;60681;-59
2023/09/04 09:42:21;;;;;;;2.90;2.60;;;;;;;27.70;52.50;100096.75;108587;1253;72641;-58
2023/09/04 09:44:48;;;;;;;4.60;2.90;;;;;;;27.76;53.02;100100.20;106487;1250;69463;-60
2023/09/04 09:47:15;;;;;;;2.80;2.40;;;;;;;27.79;53.17;100104.27;105077;1254;72337;-60
2023/09/04 09:49:42;;;;;;;3.00;2.50;;;;;;;27.81;52.30;100105.48;105271;1251;60478;-60
2023/09/04 09:52:10;;;;;;;4.80;3.20;;;;;;;27.83;52.41;100105.83;104486;1257;60434;-58
2023/09/04 09:57:08;;;;;;;2.90;2.70;;;;;;;27.28;54.21;100101.02;101907;1290;600714;-59
2023/09/04 09:59:38;;;;;;;4.90;2.80;;;;;;;27.74;53.64;100101.35;103818;1274;59841;-58
2023/09/04 10:02:08;;;;;;;4.90;2.70;;;;;;;27.77;52.80;100100.89;103664;1272;60158;-59
2023/09/04 10:04:39;;;;;;;5.10;3.00;;;;;;;27.75;52.43;100099.86;104110;1264;72872;-59
2023/09/04 10:07:07;;;;;;;6.50;2.80;;;;;;;27.70;51.74;100104.01;103794;1269;70133;-59
2023/09/04 10:09:44;;;;;;;4.20;2.70;;;;;;;27.71;52.12;100098.13;103619;1272;316533;-59
2023/09/04 10:12:16;;;;;;;;;;;;;;;27.72;52.50;100101.75;104046;1264;59802;-60
2023/09/04 10:14:44;;;;;;;4.20;2.60;;;;;;;27.66;51.79;100102.48;104122;1263;59531;-60
2023/09/04 10:17:19;;;;;;;7.70;2.90;;;;;;;27.59;52.35;100101.92;103975;1267;71829;-60
2023/09/04 10:19:47;;;;;;;5.20;2.80;;;;;;;27.56;51.90;100108.29;103968;1280;69252;-58
2023/09/04 10:22:17;;;;;;;3.70;2.80;;;;;;;27.53;51.95;100108.60;104500;1251;71043;-59
2023/09/04 10:24:48;;;;;;;3.10;2.40;;;;;;;27.54;51.74;100112.55;104474;1266;60152;-60
2023/09/04 10:27:17;;;;;;;3.90;3.00;;;;;;;27.59;51.41;100114.38;104447;1266;59835;-59
2023/09/04 10:29:47;;;;;;;6.30;3.10;;;;;;;27.61;50.84;100117.59;104288;1253;73049;-59
2023/09/04 10:32:15;;;;;;;4.30;2.50;;;;;;;27.61;50.35;100117.36;104434;1270;69620;-59
2023/09/04 10:34:42;;;;;;;4.10;2.40;;;;;;;27.63;49.96;100116.48;104416;1257;72516;-58
2023/09/04 10:37:11;;;;;;;4.00;2.90;;;;;;;27.61;50.61;100111.59;104428;1251;60702;-58
2023/09/04 10:39:39;;;;;;;4.00;2.90;;;;;;;27.62;50.15;100108.62;104419;1254;59853;-60
2023/09/04 10:42:06;;;;;;;4.50;2.80;;;;;;;27.63;50.90;100108.38;104468;1266;73523;-59
2023/09/04 10:44:48;;;;;;;4.30;2.50;;;;;;;27.63;50.57;100110.54;104390;1256;69604;-59
2023/09/04 10:47:17;;;;;;;5.00;2.90;;;;;;;27.64;50.16;100108.28;104445;1270;72463;-58
2023/09/04 10:49:45;;;;;;;4.30;2.20;;;;;;;27.68;50.59;100107.85;104580;1250;62781;-58
2023/09/04 10:52:12;;;;;;;;;;;;;;;27.66;49.09;100110.17;104422;1253;59832;-58
2023/09/04 10:54:40;;;;;;;4.80;2.70;;;;;;;27.65;49.49;100109.91;104588;1255;73058;-59
2023/09/04 10:57:15;;;;;;;2.70;2.20;;;;;;;27.64;50.18;100109.84;104267;1252;69141;-58
2023/09/04 10:59:53;;;;;;;4.40;2.50;;;;;;;27.70;50.19;100112.81;104345;1273;72499;-59
2023/09/04 11:02:31;;;;;;;2.80;2.60;;;;;;;27.76;49.93;100112.37;104276;1273;60118;-59
2023/09/04 11:05:00;;;;;;;5.40;2.60;;;;;;;27.80;49.94;100117.52;107889;1254;59733;-59
2023/09/04 11:07:32;;;;;;;2.80;2.30;;;;;;;27.81;50.54;100117.64;104511;1274;73199;-59
2023/09/04 11:10:17;;;;;;;4.70;2.60;;;;;;;27.83;50.44;100115.55;104663;1270;69333;-59
2023/09/04 11:12:45;;;;;;;3.50;2.70;;;;;;;27.85;50.41;100111.73;104689;1254;72755;-61
2023/09/04 11:15:16;;;;;;;8.30;3.30;;;;;;;27.86;50.74;100110.77;104611;1254;59975;-58
2023/09/04 11:17:45;;;;;;;3.20;2.50;;;;;;;27.84;50.82;100109.11;104808;1257;60679;-59
2023/09/04 11:20:14;;;;;;;3.10;2.80;;;;;;;27.81;51.60;100113.59;104456;1257;72887;-59
2023/09/04 11:22:47;;;;;;;3.90;2.50;;;;;;;27.80;52.55;100114.05;104373;1259;68691;-59
2023/09/04 11:25:15;;;;;;;4.50;3.10;;;;;;;27.80;52.19;100115.46;104225;1251;72295;-58
2023/09/04 11:27:44;;;;;;;3.70;2.90;;;;;;;27.83;52.46;100111.56;104300;1257;60210;-58
2023/09/04 11:30:13;;;;;;;3.50;2.50;;;;;;;27.85;53.25;100109.08;104407;1262;60102;-58
2023/09/04 11:32:40;;;;;;;6.60;2.80;;;;;;;27.91;52.58;100109.50;104276;1257;73154;-59
2023/09/04 11:35:12;;;;;;;4.60;3.00;;;;;;;27.87;53.53;100101.83;104298;1257;69484;-58